Tiempo atmosférico en la estación meteorológica de Almonte, Huelva (5 m.)

Fecha
DESCASC
Temp. máxima en grados centígrados (hora)
DESCASC
Temp. mínima en grados centígrados (hora)
DESCASC
Temp. media en grados centígrados
DESCASC
Racha de viento máxima en m/sg (hora)
DESCASC
Velocidad máxima media en intervalos de 10 minutos(hora)
DESCASC
Precipitaciones diarias en mm
DESCASC
Precipitaciones de 00:00 a 06:00 en mm
DESCASC
Precipitaciones de 06:00 a 12:00 en mm
DESCASC
Precipitaciones de 12:00 a 18:00 en mm
DESCASC
Precipitaciones de 18:00 a 24:00 en mm
DESCASC
10-12-2017 19.5 (15:10) 8.8 (07:50) 14.2 16.39 (23:40) 10.28 (23:40) 0.2 0 0 0 0.2
09-12-2017 19.2 (17:20) 8.8 (08:00) 14 5.83 (13:00) 3.89 (19:00) 0 0 0 0 0
08-12-2017 18.4 (14:40) 1.8 (08:50) 10.1 4.72 (15:40) 3.33 (15:20) 0 0 0 0 0
07-12-2017 15.8 (16:20) 1.6 (00:00) 8.7 6.11 (11:00) 4.17 (11:00) 0 0 0 0 0
06-12-2017 16 (15:50) 0.7 (00:00) 8.3 6.39 (11:10) 4.44 (11:10) 0 0 0 0 0
05-12-2017 15.8 (15:50) 0.5 (00:00) 8.2 6.94 (14:00) 4.44 (13:40) 0 0 0 0 0
04-12-2017 14.5 (16:00) 0.2 (00:00) 7.4 9.44 (12:00) 6.39 (12:10) 0 0 0 0 0
03-12-2017 12.5 (16:20) -0.7 (-00:0) 5.9 13.89 (15:00) 9.17 (15:00) 0 0 0 0 0
02-12-2017 12.7 (15:20) 1.6 (00:00) 7.1 10.28 (14:00) 7.22 (14:00) 0 0 0 0 0
01-12-2017 15.9 (15:10) -0.6 (-00:0) 7.6 7.22 (15:20) 5.28 (13:20) 0 0 0 0 0
30-11-2017 16.1 (14:40) 4.8 (00:00) 10.5 8.89 (12:10) 5.28 (11:50) 0 0 0 0 0
29-11-2017 20.1 (12:20) 8.6 (00:00) 14.4 15.83 (04:10) 10.83 (04:10) 44.4 44 0.4 0 0
28-11-2017 19.7 (14:40) 11.1 (00:00) 15.4 11.11 (23:40) 7.78 (23:40) 58.8 0.2 0.2 0 58.4
27-11-2017 21.5 (15:40) 9.1 (00:00) 15.3 5 (11:50) 3.33 (11:40) 0 0 0 0 0
26-11-2017 22.9 (15:40) 11.7 (00:00) 17.3 8.61 (12:00) 5.83 (12:00) 0 0 0 0 0
25-11-2017 22.6 (16:30) 4.5 (00:00) 13.6 4.72 (15:20) 3.33 (15:30) 0 0 0 0 0
24-11-2017 26.8 (15:10) 5.6 (00:00) 16.2 4.44 (10:30) 3.33 (10:30) 0 0 0 0 0
23-11-2017 23.8 (14:50) 6.2 (00:00) 15 6.11 (15:30) 4.44 (15:30) 0 0 0 0 0
22-11-2017 23.3 (15:10) 1.6 (00:00) 12.4 5.83 (17:30) 4.17 (16:30) 0 0 0 0 0
21-11-2017 24.7 (16:10) 2.6 (00:00) 13.7 5.56 (16:20) 3.89 (16:50) 0 0 0 0 0
20-11-2017 23.4 (16:50) 4.4 (00:00) 13.9 6.11 (11:30) 3.61 (10:30) 0 0 0 0 0
19-11-2017 21.8 (16:40) 2.6 (00:00) 12.2 5 (13:50) 3.06 (10:00) 0 0 0 0 0
18-11-2017 21.1 (16:40) 2.6 (00:00) 11.9 4.44 (10:20) 2.78 (07:40) 0 0 0 0 0
17-11-2017 21.4 (15:40) 3.4 (00:00) 12.4 5.28 (15:30) 2.78 (15:30) 0 0 0 0 0
16-11-2017 21.1 (16:00) 2.7 (00:00) 11.9 5.28 (12:30) 3.89 (08:00) 0 0 0 0 0
15-11-2017 20.9 (15:30) 3.6 (00:00) 12.2 8.06 (13:10) 5 (13:00) 0 0 0 0 0

Gráficas

Temp. máximas Temp. mínimas Temp. medias Precipitaciones Rachas de viento máximas Velocidades máximas media en intervalos de 10 minutos

Datos horarios

Fecha y hora oficial Temperatura (ºC) Velocidad del viento (km/h) Dirección del viento Racha (km/h) Dirección de racha Precipitación (mm) Presión (hPa) Tendencia (hPa) Humedad (%)
2017-12-14 23:00:00 12.7 5 Oeste 6 Oeste 0 -- -- 92
2017-12-14 22:00:00 13.6 4 Noroeste 13 Noroeste 0 -- -- 94
2017-12-14 21:00:00 13.2 0 Calma 5 Noroeste 0 -- -- 93
2017-12-14 20:00:00 13.4 0 Calma 12 Sudeste 0 -- -- 92
2017-12-14 19:00:00 13.6 5 Sudeste 12 Sudeste 0 -- -- 88
2017-12-14 18:00:00 14.1 5 Sur 13 Sudoeste 0 -- -- 80
2017-12-14 17:00:00 14.4 9 Sudoeste 15 Sudoeste 0 -- -- 75
2017-12-14 16:00:00 15.3 10 Sudoeste 16 Sudoeste 0 -- -- 69
2017-12-14 15:00:00 17.3 3 Sudoeste 12 Sur 0 -- -- 61
2017-12-14 14:00:00 15.9 4 Sudeste 11 Sur 0 -- -- 63
2017-12-14 13:00:00 13.9 3 Este 10 Este 0 -- -- 65
2017-12-14 12:00:00 10.6 5 Nordeste 12 Este 0 -- -- 77
2017-12-14 11:00:00 8.9 6 Nordeste 12 Nordeste 0 -- -- 84
2017-12-14 10:00:00 5.8 6 Nordeste 9 Nordeste 0 -- -- 95
2017-12-14 09:00:00 3.9 5 Nordeste 9 Nordeste 0 -- -- 92
2017-12-14 08:00:00 3.4 4 Norte 11 Norte 0 -- -- 92
2017-12-14 07:00:00 3.4 3 Norte 5 Nordeste 0 -- -- 93
2017-12-14 06:00:00 3.5 3 Norte 6 Norte 0 -- -- 94
2017-12-14 05:00:00 2.9 3 Norte 7 Norte 0 -- -- 95
2017-12-14 04:00:00 0.9 2 Norte 6 Nordeste 0 -- -- 95
2017-12-14 03:00:00 1.5 0 Calma 5 Nordeste 0 -- -- 95
2017-12-14 02:00:00 1.4 0 Calma 4 Nordeste 0 -- -- 94
2017-12-14 01:00:00 1.9 0 Calma 4 Norte 0 -- -- 93
2017-12-14 00:00:00 2.6 0 Calma 5 Norte 0 -- -- 92
2017-12-13 23:00:00 2.6 0 Calma 0 Calma 0 -- -- 92
2017-12-13 22:00:00 3.6 0 Calma 2 Sudoeste 0 -- -- 91
2017-12-13 21:00:00 4.3 3 Sudoeste 7 Oeste 0 -- -- 89
2017-12-13 20:00:00 5.5 0 Calma 4 Este 0 -- -- 80
2017-12-13 19:00:00 9.8 0 Calma 4 Nordeste 0 -- -- 73
2017-12-13 18:00:00 12.9 3 Nordeste 8 Nordeste 0 -- -- 60
2017-12-13 17:00:00 14.6 4 Nordeste 13 Este 0 -- -- 51
2017-12-13 16:00:00 14.4 9 Nordeste 16 Este 0 -- -- 51
2017-12-13 15:00:00 14.3 8 Nordeste 19 Este 0 -- -- 55
2017-12-13 14:00:00 13.6 9 Nordeste 21 Nordeste 0 -- -- 55
2017-12-13 13:00:00 12.3 13 Nordeste 23 Nordeste 0 -- -- 60
2017-12-13 12:00:00 9.9 17 Nordeste 24 Nordeste 0 -- -- 65
2017-12-13 11:00:00 8.1 10 Nordeste 21 Nordeste 0 -- -- 78
2017-12-13 10:00:00 4.5 9 Nordeste 15 Nordeste 0 -- -- 93
2017-12-13 09:00:00 2.1 6 Nordeste 16 Norte 0 -- -- 90
2017-12-13 08:00:00 2.4 10 Nordeste 15 Nordeste 0 -- -- 90
2017-12-13 07:00:00 4 10 Norte 17 Noroeste 0 -- -- 86
2017-12-13 06:00:00 3.9 5 Norte 14 Norte 0 -- -- 90
2017-12-13 05:00:00 3.9 6 Norte 12 Norte 0 -- -- 88
2017-12-13 04:00:00 3.2 6 Nordeste 9 Nordeste 0 -- -- 85
2017-12-13 03:00:00 4.6 6 Norte 13 Norte 0 -- -- 84
2017-12-13 02:00:00 3.9 5 Norte 11 Norte 0 -- -- 87
2017-12-13 01:00:00 4.9 6 Norte 11 Norte 0 -- -- 81
2017-12-13 00:00:00 6 4 Norte 15 Norte 0 -- -- 76
2017-12-12 23:00:00 6.4 5 Norte 15 Nordeste 0 -- -- 76
2017-12-12 22:00:00 5.3 4 Norte 16 Nordeste 0 -- -- 87
2017-12-12 21:00:00 5.9 3 Norte 5 Norte 0 -- -- 84
2017-12-12 20:00:00 6 0 Calma 4 Sudeste 0 -- -- 80
2017-12-12 19:00:00 9.1 3 Este 5 Norte 0 -- -- 68
2017-12-12 18:00:00 12.2 5 Nordeste 11 Nordeste 0 -- -- 56
2017-12-12 17:00:00 14 8 Nordeste 17 Nordeste 0 -- -- 46
2017-12-12 16:00:00 14.2 10 Nordeste 22 Nordeste 0 -- -- 46
2017-12-12 15:00:00 14.1 9 Nordeste 26 Nordeste 0 -- -- 50
2017-12-12 14:00:00 13.4 15 Nordeste 24 Nordeste 0 -- -- 48
2017-12-12 13:00:00 12.4 10 Nordeste 21 Nordeste 0 -- -- 54
2017-12-12 12:00:00 10.7 11 Nordeste 19 Nordeste 0 -- -- 63
2017-12-12 11:00:00 8.6 11 Nordeste 20 Nordeste 0 -- -- 68
2017-12-12 10:00:00 5.9 4 Norte 12 Noroeste 0 -- -- 82
2017-12-12 09:00:00 4.5 9 Norte 16 Norte 0 -- -- 81
2017-12-12 08:00:00 3.9 9 Norte 17 Norte 0 -- -- 86
2017-12-12 07:00:00 3.5 5 Noroeste 10 Norte 0 -- -- 91
2017-12-12 06:00:00 3.7 3 Noroeste 10 Norte 0 -- -- 88
2017-12-12 05:00:00 5.8 7 Norte 14 Norte 0 -- -- 84
2017-12-12 04:00:00 4.9 3 Noroeste 11 Noroeste 0 -- -- 91
2017-12-12 03:00:00 5.7 3 Oeste 12 Noroeste 0 -- -- 89
2017-12-12 02:00:00 6.2 6 Noroeste 13 Noroeste 0 -- -- 89
2017-12-12 01:00:00 6.8 6 Noroeste 16 Noroeste 0 -- -- 87
2017-12-12 00:00:00 7.7 8 Noroeste 19 Noroeste 0 -- -- 83
2017-12-11 23:00:00 8.2 8 Noroeste 21 Oeste 0 -- -- 81
2017-12-11 22:00:00 9 9 Oeste 21 Oeste 0 -- -- 78
2017-12-11 21:00:00 9.7 11 Oeste 23 Noroeste 0 -- -- 78
2017-12-11 20:00:00 10.7 10 Oeste 25 Oeste 0 -- -- 74
2017-12-11 19:00:00 11.2 10 Oeste 19 Oeste 0.2 -- -- 80
2017-12-11 18:00:00 13.6 11 Oeste 22 Oeste 0 -- -- 73
2017-12-11 17:00:00 14.8 15 Oeste 37 Oeste 0 -- -- 61
2017-12-11 16:00:00 15.8 22 Oeste 34 Oeste 0 -- -- 54
2017-12-11 15:00:00 15.7 20 Oeste 36 Oeste 0 -- -- 49
2017-12-11 14:00:00 15 24 Oeste 39 Oeste 0 -- -- 62
2017-12-11 13:00:00 13.9 15 Oeste 29 Oeste 0 -- -- 72
2017-12-11 12:00:00 10.9 10 Oeste 19 Oeste 0 -- -- 87
2017-12-11 11:00:00 10 9 Oeste 18 Oeste 0 -- -- 94
2017-12-11 10:00:00 8.9 5 Oeste 14 Noroeste 0 -- -- 95
2017-12-11 09:00:00 8.9 10 Oeste 24 Oeste 2.4 -- -- 94
2017-12-11 08:00:00 9.3 15 Noroeste 53 Oeste 3 -- -- 92
2017-12-11 07:00:00 11 31 Noroeste 58 Noroeste 10.6 -- -- 91
2017-12-11 06:00:00 16.1 36 Oeste 75 Sudoeste 4 -- -- 93
2017-12-11 05:00:00 16.9 48 Sudoeste 71 Sudoeste 0 -- -- 86
2017-12-11 04:00:00 17.7 45 Sudoeste 68 Sudoeste 0 -- -- 79
2017-12-11 03:00:00 17.5 41 Sudoeste 60 Sudoeste 0 -- -- 78
2017-12-11 02:00:00 17.3 40 Sudoeste 62 Sudoeste 0 -- -- 77
2017-12-11 01:00:00 17.3 35 Sudoeste 60 Sudoeste 0 -- -- 79
2017-12-11 00:00:00 17.1 36 Sudoeste 59 Sudoeste 0 -- -- 77
2017-12-10 23:00:00 17 34 Sudoeste 53 Sudoeste 0 -- -- 79
2017-12-10 22:00:00 16.7 30 Sudoeste 44 Sudoeste 0 -- -- 87
2017-12-10 21:00:00 16.4 26 Sudoeste 39 Sudoeste 0.2 -- -- 91
2017-12-10 20:00:00 16.9 21 Sudoeste 33 Sudoeste 0 -- -- 82
2017-12-10 19:00:00 16.9 23 Sudoeste 37 Sudoeste 0 -- -- 81
2017-12-10 18:00:00 17.1 22 Sudoeste 33 Sudoeste 0 -- -- 80
2017-12-10 17:00:00 18 21 Sudoeste 37 Oeste 0 -- -- 76
2017-12-10 16:00:00 18.6 22 Sudoeste 33 Sudoeste 0 -- -- 73
2017-12-10 15:00:00 19.2 23 Sudoeste 33 Oeste 0 -- -- 69
2017-12-10 14:00:00 19 21 Oeste 27 Oeste 0 -- -- 73
2017-12-10 13:00:00 19.3 15 Sudoeste 23 Sudoeste 0 -- -- 72
2017-12-10 12:00:00 18.3 12 Sudoeste 17 Sudoeste 0 -- -- 78
2017-12-10 11:00:00 15.2 5 Sudoeste 9 Sudoeste 0 -- -- 98
2017-12-10 10:00:00 11.2 0 Calma 2 Nordeste 0 -- -- 98
2017-12-10 09:00:00 10.2 0 Calma 7 Noroeste 0 -- -- 97
2017-12-10 08:00:00 8.9 5 Oeste 8 Oeste 0 -- -- 97
2017-12-10 07:00:00 9.3 5 Sudoeste 8 Oeste 0 -- -- 95
2017-12-10 06:00:00 10.7 0 Calma 6 Norte 0 -- -- 95
2017-12-10 05:00:00 11.8 3 Noroeste 16 Norte 0 -- -- 96
2017-12-10 04:00:00 11.9 4 Noroeste 12 Noroeste 0 -- -- 96
2017-12-10 03:00:00 11.7 3 Noroeste 10 Noroeste 0 -- -- 94
2017-12-10 02:00:00 12.2 5 Noroeste 13 Noroeste 0 -- -- 93
2017-12-10 01:00:00 12.4 8 Noroeste 14 Oeste 0 -- -- 91
2017-12-10 00:00:00 13 8 Oeste 15 Oeste 0 -- -- 88
2017-12-09 23:00:00 13.5 8 Noroeste 15 Noroeste 0 -- -- 85
2017-12-09 22:00:00 14.8 6 Noroeste 10 Noroeste 0 -- -- 81
2017-12-09 21:00:00 15.8 6 Oeste 12 Oeste 0 -- -- 80
2017-12-09 20:00:00 16.4 9 Oeste 17 Oeste 0 -- -- 86
2017-12-09 19:00:00 15.9 14 Oeste 20 Oeste 0 -- -- 83
2017-12-09 18:00:00 17.8 7 Sudoeste 14 Oeste 0 -- -- 73
2017-12-09 17:00:00 18.5 8 Oeste 21 Oeste 0 -- -- 68
2017-12-09 16:00:00 18.5 12 Noroeste 19 Oeste 0 -- -- 67
2017-12-09 15:00:00 18.3 6 Noroeste 17 Noroeste 0 -- -- 72
2017-12-09 14:00:00 17.5 7 Oeste 19 Oeste 0 -- -- 79
2017-12-09 13:00:00 17.2 13 Oeste 21 Oeste 0 -- -- 81
2017-12-09 12:00:00 16.7 9 Noroeste 19 Noroeste 0 -- -- 83
2017-12-09 11:00:00 15.5 10 Noroeste 19 Noroeste 0 -- -- 92
2017-12-09 10:00:00 13.5 6 Oeste 14 Noroeste 0 -- -- 98
2017-12-09 09:00:00 10.3 5 Oeste 10 Oeste 0 -- -- 98
2017-12-09 08:00:00 8.8 8 Oeste 10 Oeste 0 -- -- 96
2017-12-09 07:00:00 10.3 2 Oeste 5 Noroeste 0 -- -- 95
2017-12-09 06:00:00 10.9 3 Noroeste 6 Oeste 0 -- -- 96
2017-12-09 05:00:00 11 4 Oeste 8 Noroeste 0 -- -- 94
2017-12-09 04:00:00 12.3 5 Noroeste 10 Oeste 0 -- -- 95
2017-12-09 03:00:00 11.7 5 Oeste 10 Oeste 0 -- -- 96
2017-12-09 02:00:00 11 3 Oeste 10 Oeste 0 -- -- 92
2017-12-09 01:00:00 11.5 6 Oeste 10 Oeste 0 -- -- 91
2017-12-09 00:00:00 12.1 5 Oeste 15 Noroeste 0 -- -- 88
2017-12-08 23:00:00 12.7 9 Noroeste 16 Noroeste 0 -- -- 85
2017-12-08 22:00:00 12 6 Noroeste 11 Oeste 0 -- -- 81
2017-12-08 21:00:00 12 8 Oeste 15 Oeste 0 -- -- 85
2017-12-08 20:00:00 9.9 8 Oeste 12 Oeste 0 -- -- 89
2017-12-08 19:00:00 10.5 7 Sudoeste 10 Sudoeste 0 -- -- 79
2017-12-08 18:00:00 14.2 5 Oeste 15 Oeste 0 -- -- 65
2017-12-08 17:00:00 16.8 10 Oeste 15 Oeste 0 -- -- 52
2017-12-08 16:00:00 17.4 10 Oeste 17 Oeste 0 -- -- 49
2017-12-08 15:00:00 18.1 10 Sudoeste 14 Sudoeste 0 -- -- 46
2017-12-08 14:00:00 15.9 4 Norte 12 Nordeste 0 -- -- 50
2017-12-08 13:00:00 14 7 Nordeste 14 Nordeste 0 -- -- 56
2017-12-08 12:00:00 12 8 Nordeste 15 Nordeste 0 -- -- 64
2017-12-08 11:00:00 8.6 7 Nordeste 16 Nordeste 0 -- -- 78
2017-12-08 10:00:00 5.3 8 Nordeste 12 Nordeste 0 -- -- 91
2017-12-08 09:00:00 2.2 5 Norte 9 Norte 0 -- -- 93
2017-12-08 08:00:00 3 4 Norte 9 Norte 0 -- -- 92
2017-12-08 07:00:00 3.5 4 Norte 10 Norte 0 -- -- 91
2017-12-08 06:00:00 3.1 6 Norte 9 Nordeste 0 -- -- 88
2017-12-08 05:00:00 4.4 6 Norte 12 Norte 0 -- -- 89
2017-12-08 04:00:00 4 5 Norte 11 Nordeste 0 -- -- 92
2017-12-08 03:00:00 2.7 2 Norte 7 Nordeste 0 -- -- 92
2017-12-08 02:00:00 3 2 Norte 6 Nordeste 0 -- -- 91
2017-12-08 01:00:00 3.8 4 Norte 8 Noroeste 0 -- -- 93
2017-12-08 00:00:00 2.5 2 Norte 8 Nordeste 0 -- -- 90
2017-12-07 23:00:00 3.1 3 Norte 5 Norte 0 -- -- 91
2017-12-07 22:00:00 3.5 0 Calma 8 Noroeste 0 -- -- 83
2017-12-07 21:00:00 7.9 8 Noroeste 12 Noroeste 0 -- -- 81
2017-12-07 20:00:00 7.5 5 Noroeste 8 Noroeste 0 -- -- 83
2017-12-07 19:00:00 10.6 2 Noroeste 6 Noroeste 0 -- -- 68
2017-12-07 18:00:00 13.8 0 Calma 7 Nordeste 0 -- -- 58
2017-12-07 17:00:00 15.6 4 Nordeste 11 Nordeste 0 -- -- 53
2017-12-07 16:00:00 15.6 5 Norte 12 Nordeste 0 -- -- 55
2017-12-07 15:00:00 15.1 6 Nordeste 14 Nordeste 0 -- -- 58
2017-12-07 14:00:00 13.8 9 Nordeste 17 Nordeste 0 -- -- 61
2017-12-07 13:00:00 12.3 12 Nordeste 20 Nordeste 0 -- -- 66
2017-12-07 12:00:00 10.7 11 Nordeste 22 Nordeste 0 -- -- 70
2017-12-07 11:00:00 8 15 Nordeste 22 Nordeste 0 -- -- 78
2017-12-07 10:00:00 4.4 8 Nordeste 14 Norte 0 -- -- 92
2017-12-07 09:00:00 2.8 7 Norte 16 Nordeste 0 -- -- 90
2017-12-07 08:00:00 1.9 9 Norte 16 Nordeste 0 -- -- 92
2017-12-07 07:00:00 2 7 Nordeste 12 Nordeste 0 -- -- 91
2017-12-07 06:00:00 3.3 7 Norte 12 Nordeste 0 -- -- 87
2017-12-07 05:00:00 3.7 6 Norte 10 Norte 0 -- -- 88
2017-12-07 04:00:00 2.6 4 Norte 12 Norte 0 -- -- 90
2017-12-07 03:00:00 3.6 7 Norte 13 Nordeste 0 -- -- 88
2017-12-07 02:00:00 4.2 6 Norte 12 Norte 0 -- -- 91
2017-12-07 01:00:00 2.5 2 Norte 7 Norte 0 -- -- 92
2017-12-07 00:00:00 2.9 6 Nordeste 8 Nordeste 0 -- -- 87
2017-12-06 23:00:00 4.2 0 Calma 5 Nordeste 0 -- -- 81
2017-12-06 22:00:00 7.2 3 Norte 8 Nordeste 0 -- -- 76
2017-12-06 21:00:00 7.6 4 Norte 8 Nordeste 0 -- -- 75
2017-12-06 20:00:00 9.3 2 Norte 9 Nordeste 0 -- -- 69
2017-12-06 19:00:00 10.8 10 Norte 14 Nordeste 0 -- -- 69
2017-12-06 18:00:00 13.1 4 Nordeste 12 Nordeste 0 -- -- 59
2017-12-06 17:00:00 15.3 11 Nordeste 19 Nordeste 0 -- -- 54
2017-12-06 16:00:00 15.9 10 Nordeste 19 Nordeste 0 -- -- 49
2017-12-06 15:00:00 15.2 12 Nordeste 19 Nordeste 0 -- -- 52
2017-12-06 14:00:00 14.1 12 Nordeste 21 Nordeste 0 -- -- 58
2017-12-06 13:00:00 12.6 12 Nordeste 21 Nordeste 0 -- -- 65
2017-12-06 12:00:00 10.4 13 Nordeste 23 Nordeste 0 -- -- 70
2017-12-06 11:00:00 8 14 Nordeste 21 Nordeste 0 -- -- 76
2017-12-06 10:00:00 4 9 Nordeste 15 Nordeste 0 -- -- 93
2017-12-06 09:00:00 1.4 9 Nordeste 16 Norte 0 -- -- 94
2017-12-06 08:00:00 1.3 10 Nordeste 17 Norte 0 -- -- 92
2017-12-06 07:00:00 2 8 Norte 14 Norte 0 -- -- 93
2017-12-06 06:00:00 1.8 10 Nordeste 13 Nordeste 0 -- -- 91
2017-12-06 05:00:00 3.3 6 Norte 14 Norte 0 -- -- 88
2017-12-06 04:00:00 3.7 6 Norte 12 Nordeste 0 -- -- 89
2017-12-06 03:00:00 3.5 7 Norte 14 Nordeste 0 -- -- 87
2017-12-06 02:00:00 3.8 8 Nordeste 11 Nordeste 0 -- -- 82
2017-12-06 01:00:00 5.9 4 Norte 11 Norte 0 -- -- 76
2017-12-06 00:00:00 6.8 6 Norte 12 Noroeste 0 -- -- 74
2017-12-05 23:00:00 4.8 0 Calma 4 Norte 0 -- -- 84
2017-12-05 22:00:00 5.9 3 Este 5 Este 0 -- -- 83
2017-12-05 21:00:00 7.5 4 Nordeste 15 Nordeste 0 -- -- 71
2017-12-05 20:00:00 8.8 6 Norte 10 Norte 0 -- -- 67
2017-12-05 19:00:00 10.8 3 Norte 15 Nordeste 0 -- -- 61
2017-12-05 18:00:00 12.3 10 Nordeste 19 Nordeste 0 -- -- 58
2017-12-05 17:00:00 15.2 14 Nordeste 24 Nordeste 0 -- -- 49
2017-12-05 16:00:00 15.7 15 Nordeste 24 Nordeste 0 -- -- 48
2017-12-05 15:00:00 15.4 14 Nordeste 24 Nordeste 0 -- -- 52
2017-12-05 14:00:00 14.6 15 Nordeste 25 Nordeste 0 -- -- 53
2017-12-05 13:00:00 13.5 15 Nordeste 23 Nordeste 0 -- -- 57
2017-12-05 12:00:00 11.5 14 Nordeste 23 Nordeste 0 -- -- 66
2017-12-05 11:00:00 8.6 13 Nordeste 23 Nordeste 0 -- -- 73
2017-12-05 10:00:00 4.9 10 Nordeste 17 Nordeste 0 -- -- 90
2017-12-05 09:00:00 1.8 7 Nordeste 15 Norte 0 -- -- 91
2017-12-05 08:00:00 0.8 5 Nordeste 10 Nordeste 0 -- -- 93
2017-12-05 07:00:00 2.3 4 Nordeste 11 Norte 0 -- -- 87
2017-12-05 06:00:00 3 7 Norte 12 Norte 0 -- -- 90
2017-12-05 05:00:00 3.3 6 Norte 12 Norte 0 -- -- 86
2017-12-05 04:00:00 3.9 5 Norte 11 Norte 0 -- -- 85
2017-12-05 03:00:00 3.6 6 Norte 15 Nordeste 0 -- -- 85
2017-12-05 02:00:00 2.7 8 Norte 16 Norte 0 -- -- 87
2017-12-05 01:00:00 3.5 9 Norte 15 Norte 0 -- -- 75
2017-12-05 00:00:00 6 6 Norte 13 Nordeste 0 -- -- 66
2017-12-04 23:00:00 5.3 4 Norte 8 Nordeste 0 -- -- 70
2017-12-04 22:00:00 4.7 3 Nordeste 6 Sudeste 0 -- -- 74
2017-12-04 21:00:00 7.5 6 Nordeste 13 Nordeste 0 -- -- 62
2017-12-04 20:00:00 8 6 Norte 15 Norte 0 -- -- 60
2017-12-04 19:00:00 9.8 4 Norte 11 Norte 0 -- -- 57
2017-12-04 18:00:00 11.8 5 Norte 18 Nordeste 0 -- -- 53
2017-12-04 17:00:00 14.1 15 Nordeste 24 Este 0 -- -- 43
2017-12-04 16:00:00 14.5 14 Nordeste 26 Nordeste 0 -- -- 42
2017-12-04 15:00:00 13.9 16 Nordeste 31 Nordeste 0 -- -- 43
2017-12-04 14:00:00 13.2 17 Nordeste 32 Nordeste 0 -- -- 43
2017-12-04 13:00:00 12 20 Nordeste 32 Nordeste 0 -- -- 46
2017-12-04 12:00:00 10 23 Nordeste 34 Nordeste 0 -- -- 49
2017-12-04 11:00:00 7.8 21 Nordeste 30 Nordeste 0 -- -- 55
2017-12-04 10:00:00 3.8 10 Nordeste 17 Nordeste 0 -- -- 76
2017-12-04 09:00:00 1.4 10 Nordeste 15 Norte 0 -- -- 76
2017-12-04 08:00:00 0.7 8 Nordeste 18 Nordeste 0 -- -- 80
2017-12-04 07:00:00 0.2 13 Nordeste 18 Norte 0 -- -- 82
2017-12-04 06:00:00 0.9 11 Nordeste 15 Nordeste 0 -- -- 80
2017-12-04 05:00:00 1.1 11 Nordeste 18 Nordeste 0 -- -- 82
2017-12-04 04:00:00 0.7 13 Nordeste 16 Nordeste 0 -- -- 83
2017-12-04 03:00:00 2 8 Norte 18 Norte 0 -- -- 82
2017-12-04 02:00:00 2.3 11 Nordeste 17 Nordeste 0 -- -- 83
2017-12-04 01:00:00 2.4 7 Nordeste 11 Nordeste 0 -- -- 81
2017-12-04 00:00:00 1.9 9 Nordeste 16 Norte 0 -- -- 82
2017-12-03 23:00:00 3.1 8 Norte 15 Nordeste 0 -- -- 77
2017-12-03 22:00:00 4.3 7 Norte 12 Nordeste 0 -- -- 73
2017-12-03 21:00:00 4.3 9 Nordeste 15 Nordeste 0 -- -- 73
2017-12-03 20:00:00 5.1 9 Nordeste 15 Nordeste 0 -- -- 73
2017-12-03 19:00:00 5.7 9 Nordeste 15 Nordeste 0 -- -- 67
2017-12-03 18:00:00 9.8 10 Nordeste 27 Nordeste 0 -- -- 52
2017-12-03 17:00:00 12.1 21 Nordeste 39 Nordeste 0 -- -- 38
2017-12-03 16:00:00 12.4 27 Nordeste 47 Nordeste 0 -- -- 36
2017-12-03 15:00:00 12 33 Nordeste 50 Nordeste 0 -- -- 36
2017-12-03 14:00:00 12.1 28 Nordeste 50 Nordeste 0 -- -- 37
2017-12-03 13:00:00 11.1 27 Nordeste 45 Nordeste 0 -- -- 47
2017-12-03 12:00:00 10.2 30 Nordeste 44 Nordeste 0 -- -- 50
2017-12-03 11:00:00 8.5 22 Nordeste 31 Nordeste 0 -- -- 60
2017-12-03 10:00:00 3.6 10 Nordeste 18 Norte 0 -- -- 83
2017-12-03 09:00:00 0.5 12 Nordeste 18 Nordeste 0 -- -- 84
2017-12-03 08:00:00 0.7 9 Nordeste 15 Nordeste 0 -- -- 79
2017-12-03 07:00:00 1.6 6 Norte 18 Norte 0 -- -- 78
2017-12-03 06:00:00 0.6 9 Norte 18 Norte 0 -- -- 82
2017-12-03 05:00:00 1.9 2 Norte 12 Norte 0 -- -- 75
2017-12-03 04:00:00 2.4 6 Norte 18 Nordeste 0 -- -- 77
2017-12-03 03:00:00 3.2 6 Norte 12 Nordeste 0 -- -- 72
2017-12-03 02:00:00 3.8 4 Norte 13 Norte 0 -- -- 70
2017-12-03 01:00:00 3.9 5 Norte 13 Norte 0 -- -- 70
2017-12-03 00:00:00 4.5 6 Norte 12 Norte 0 -- -- 69
2017-12-02 23:00:00 4.6 4 Norte 9 Norte 0 -- -- 68
2017-12-02 22:00:00 5.9 5 Norte 11 Norte 0 -- -- 62
2017-12-02 21:00:00 6.6 4 Norte 13 Nordeste 0 -- -- 64
2017-12-02 20:00:00 7 5 Norte 11 Nordeste 0 -- -- 64
2017-12-02 19:00:00 7.7 9 Nordeste 15 Nordeste 0 -- -- 60
2017-12-02 18:00:00 9.8 7 Nordeste 24 Nordeste 0 -- -- 50
2017-12-02 17:00:00 12.3 15 Nordeste 33 Nordeste 0 -- -- 38
2017-12-02 16:00:00 12.5 22 Nordeste 35 Nordeste 0 -- -- 39
2017-12-02 15:00:00 12.2 23 Nordeste 37 Nordeste 0 -- -- 42
2017-12-02 14:00:00 11.7 26 Nordeste 37 Nordeste 0 -- -- 43
2017-12-02 13:00:00 11.2 23 Nordeste 34 Nordeste 0 -- -- 44
2017-12-02 12:00:00 10.4 22 Nordeste 37 Nordeste 0 -- -- 48
2017-12-02 11:00:00 8.7 22 Nordeste 32 Nordeste 0 -- -- 57
2017-12-02 10:00:00 5.5 13 Nordeste 21 Norte 0 -- -- 81
2017-12-02 09:00:00 2.6 10 Nordeste 17 Nordeste 0 -- -- 89
2017-12-02 08:00:00 2 13 Nordeste 17 Norte 0 -- -- 92
2017-12-02 07:00:00 2.3 12 Nordeste 18 Nordeste 0 -- -- 92
2017-12-02 06:00:00 2.4 12 Nordeste 18 Nordeste 0 -- -- 90
2017-12-02 05:00:00 3.5 12 Nordeste 17 Nordeste 0 -- -- 87
2017-12-02 04:00:00 5 7 Norte 12 Nordeste 0 -- -- 83
2017-12-02 03:00:00 5.8 6 Norte 11 Norte 0 -- -- 80
2017-12-02 02:00:00 4.6 5 Norte 13 Norte 0 -- -- 89
2017-12-02 01:00:00 6.7 8 Norte 16 Norte 0 -- -- 78
2017-12-02 00:00:00 6.3 5 Norte 11 Noroeste 0 -- -- 78
2017-12-01 23:00:00 7 8 Noroeste 14 Noroeste 0 -- -- 71
2017-12-01 22:00:00 7.7 5 Noroeste 14 Noroeste 0 -- -- 68
2017-12-01 21:00:00 8.3 7 Noroeste 16 Noroeste 0 -- -- 66
2017-12-01 20:00:00 8.8 9 Noroeste 15 Noroeste 0 -- -- 62
2017-12-01 19:00:00 10.5 9 Noroeste 15 Oeste 0 -- -- 54
2017-12-01 18:00:00 13.5 9 Oeste 26 Oeste 0 -- -- 47
2017-12-01 17:00:00 15.5 13 Noroeste 24 Noroeste 0 -- -- 39
2017-12-01 16:00:00 15.6 9 Noroeste 26 Noroeste 0 -- -- 38
2017-12-01 15:00:00 15.8 12 Noroeste 26 Oeste 0 -- -- 38
2017-12-01 14:00:00 15 17 Sudoeste 25 Sudoeste 0 -- -- 46
2017-12-01 13:00:00 14.6 7 Oeste 19 Oeste 0 -- -- 39
2017-12-01 12:00:00 11.2 4 Norte 10 Nordeste 0 -- -- 50
2017-12-01 11:00:00 8.9 5 Nordeste 12 Nordeste 0 -- -- 61
2017-12-01 10:00:00 4.5 4 Norte 10 Noroeste 0 -- -- 84
2017-12-01 09:00:00 0.3 2 Norte 5 Norte 0 -- -- 93
2017-12-01 08:00:00 0.3 3 Noroeste 6 Norte 0 -- -- 90
2017-12-01 07:00:00 0 3 Nordeste 8 Nordeste 0 -- -- 89
2017-12-01 06:00:00 0.1 4 Este 12 Norte 0 -- -- 87
2017-12-01 05:00:00 3 6 Norte 13 Norte 0 -- -- 76
2017-12-01 04:00:00 0.9 3 Norte 10 Norte 0 -- -- 86
2017-12-01 03:00:00 2.1 3 Nordeste 9 Noroeste 0 -- -- 81
2017-12-01 02:00:00 5.2 6 Noroeste 20 Norte 0 -- -- 67
2017-12-01 01:00:00 5.4 8 Norte 16 Norte 0 -- -- 66
2017-12-01 00:00:00 5 8 Noroeste 16 Norte 0 -- -- 67
2017-11-30 23:00:00 6.2 7 Noroeste 14 Norte 0 -- -- 61
2017-11-30 22:00:00 7.3 7 Norte 18 Noroeste 0 -- -- 57
2017-11-30 21:00:00 9.4 8 Norte 17 Norte 0 -- -- 47
2017-11-30 20:00:00 9.5 7 Norte 16 Norte 0 -- -- 48
2017-11-30 19:00:00 10.8 6 Norte 15 Noroeste 0 -- -- 46
2017-11-30 18:00:00 12.6 5 Norte 22 Norte 0 -- -- 45
2017-11-30 17:00:00 15.2 12 Nordeste 27 Nordeste 0 -- -- 37
2017-11-30 16:00:00 16.1 10 Norte 27 Nordeste 0 -- -- 36
2017-11-30 15:00:00 16 15 Nordeste 31 Nordeste 0 -- -- 38
2017-11-30 14:00:00 15.7 15 Nordeste 31 Norte 0 -- -- 40
2017-11-30 13:00:00 14.7 15 Nordeste 32 Nordeste 0 -- -- 45
2017-11-30 12:00:00 13.9 16 Nordeste 30 Nordeste 0 -- -- 50
2017-11-30 11:00:00 11.8 10 Norte 19 Norte 0 -- -- 65
2017-11-30 10:00:00 8.2 8 Norte 16 Norte 0 -- -- 81
2017-11-30 09:00:00 4.9 5 Noroeste 13 Noroeste 0 -- -- 91
2017-11-30 08:00:00 5 5 Noroeste 16 Noroeste 0 -- -- 89
2017-11-30 07:00:00 5.2 9 Noroeste 16 Noroeste 0 -- -- 88
2017-11-30 06:00:00 5.3 6 Noroeste 15 Norte 0 -- -- 88
2017-11-30 05:00:00 5.3 4 Noroeste 12 Noroeste 0 -- -- 91
2017-11-30 04:00:00 5.7 6 Noroeste 12 Noroeste 0 -- -- 90
2017-11-30 03:00:00 6.3 6 Noroeste 14 Noroeste 0 -- -- 91
2017-11-30 02:00:00 7.1 6 Noroeste 12 Noroeste 0 -- -- 90
2017-11-30 01:00:00 7.8 7 Noroeste 11 Noroeste 0 -- -- 89
2017-11-30 00:00:00 8.6 6 Noroeste 11 Noroeste 0 -- -- 90
2017-11-29 23:00:00 9.4 5 Noroeste 11 Noroeste 0 -- -- 89
2017-11-29 22:00:00 10.5 6 Noroeste 16 Noroeste 0 -- -- 85
2017-11-29 21:00:00 11.6 8 Oeste 17 Oeste 0 -- -- 83
2017-11-29 20:00:00 12.7 10 Oeste 18 Oeste 0 -- -- 80
2017-11-29 19:00:00 13.9 9 Noroeste 23 Oeste 0 -- -- 75
2017-11-29 18:00:00 16.8 11 Noroeste 25 Noroeste 0 -- -- 68
2017-11-29 17:00:00 19.3 10 Noroeste 23 Oeste 0 -- -- 59
2017-11-29 16:00:00 19.3 13 Noroeste 29 Noroeste 0 -- -- 66
2017-11-29 15:00:00 19.6 17 Noroeste 31 Noroeste 0 -- -- 70
2017-11-29 14:00:00 19.8 14 Noroeste 29 Oeste 0 -- -- 76
2017-11-29 13:00:00 19.8 15 Oeste 28 Oeste 0 -- -- 83
2017-11-29 12:00:00 19.6 14 Oeste 28 Oeste 0 -- -- 85
2017-11-29 11:00:00 18 8 Noroeste 20 Oeste 0 -- -- 96
2017-11-29 10:00:00 17.5 10 Oeste 20 Noroeste 0.2 -- -- 98
2017-11-29 09:00:00 17.3 13 Oeste 18 Oeste 0 -- -- 98
2017-11-29 08:00:00 16.2 6 Oeste 11 Sudoeste 0.2 -- -- 98
2017-11-29 07:00:00 15.9 7 Oeste 14 Oeste 0 -- -- 97
2017-11-29 06:00:00 16.3 10 Sudoeste 29 Sudoeste 4.4 -- -- 97
2017-11-29 05:00:00 16.6 9 Sudoeste 57 Oeste 33 -- -- 96
2017-11-29 04:00:00 18.7 25 Oeste 52 Oeste 0.8 -- -- 95
2017-11-29 03:00:00 18.5 26 Sudoeste 39 Sudoeste 0 -- -- 96
2017-11-29 02:00:00 17.7 14 Oeste 39 Oeste 5.2 -- -- 96
2017-11-29 01:00:00 18 18 Sudoeste 37 Oeste 0.6 -- -- 95
2017-11-29 00:00:00 18.6 26 Sudoeste 40 Sudoeste 6.4 -- -- 97
2017-11-28 23:00:00 16.8 12 Noroeste 24 Oeste 41.8 -- -- 96
2017-11-28 22:00:00 18.3 16 Sudoeste 26 Sudoeste 10.2 -- -- 95
2017-11-28 21:00:00 18.5 15 Sur 23 Sur 0 -- -- 93
2017-11-28 20:00:00 18.4 13 Sur 22 Sur 0 -- -- 92
2017-11-28 19:00:00 18.4 16 Sur 26 Sur 0 -- -- 90
2017-11-28 18:00:00 18.5 17 Sur 31 Sur 0 -- -- 85
2017-11-28 17:00:00 19.2 19 Sur 30 Sur 0 -- -- 77
2017-11-28 16:00:00 19.3 10 Sur 17 Sur 0 -- -- 72
2017-11-28 15:00:00 19.5 4 Sudeste 19 Sudeste 0 -- -- 69
2017-11-28 14:00:00 18.2 9 Este 20 Este 0 -- -- 68
2017-11-28 13:00:00 16.2 11 Nordeste 17 Nordeste 0 -- -- 77
2017-11-28 12:00:00 14.7 11 Nordeste 22 Nordeste 0.2 -- -- 86
2017-11-28 11:00:00 14 10 Nordeste 17 Nordeste 0 -- -- 88
2017-11-28 10:00:00 13 9 Nordeste 15 Nordeste 0 -- -- 92
2017-11-28 09:00:00 11.7 8 Nordeste 15 Nordeste 0 -- -- 94
2017-11-28 08:00:00 11.5 6 Nordeste 12 Norte 0 -- -- 93
2017-11-28 07:00:00 11.7 4 Nordeste 15 Nordeste 0 -- -- 94
2017-11-28 06:00:00 11.7 7 Nordeste 13 Nordeste 0 -- -- 94
2017-11-28 05:00:00 11.3 3 Nordeste 12 Norte 0 -- -- 93
2017-11-28 04:00:00 11.1 5 Nordeste 9 Nordeste 0 -- -- 90
2017-11-28 03:00:00 12 3 Este 14 Nordeste 0.2 -- -- 91
2017-11-28 02:00:00 12.5 5 Este 14 Este 0 -- -- 87
2017-11-28 01:00:00 12.4 4 Noroeste 9 Noroeste 0 -- -- 84
2017-11-28 00:00:00 12.3 5 Nordeste 9 Norte 0 -- -- 83
2017-11-27 23:00:00 11.7 3 Nordeste 6 Nordeste 0 -- -- 84
2017-11-27 22:00:00 12.2 0 Calma 2 Este 0 -- -- 78
2017-11-27 21:00:00 12.6 0 Calma 5 Sudeste 0 -- -- 82
2017-11-27 20:00:00 12.8 0 Calma 4 Nordeste 0 -- -- 74
2017-11-27 19:00:00 15.9 2 Este 6 Este 0 -- -- 67
2017-11-27 18:00:00 18.9 2 Nordeste 12 Nordeste 0 -- -- 58
2017-11-27 17:00:00 20.5 8 Nordeste 13 Nordeste 0 -- -- 54
2017-11-27 16:00:00 21.3 2 Sudeste 14 Este 0 -- -- 51
2017-11-27 15:00:00 20.6 6 Este 17 Nordeste 0 -- -- 54
2017-11-27 14:00:00 19.5 10 Nordeste 17 Nordeste 0 -- -- 56
2017-11-27 13:00:00 17.8 9 Nordeste 18 Nordeste 0 -- -- 57
2017-11-27 12:00:00 14.7 11 Nordeste 18 Nordeste 0 -- -- 64
2017-11-27 11:00:00 13.4 8 Nordeste 15 Nordeste 0 -- -- 67
2017-11-27 10:00:00 11.1 9 Nordeste 14 Nordeste 0 -- -- 72
2017-11-27 09:00:00 9.3 6 Nordeste 12 Nordeste 0 -- -- 76
2017-11-27 08:00:00 9.5 10 Nordeste 15 Nordeste 0 -- -- 74
2017-11-27 07:00:00 9.2 5 Nordeste 10 Norte 0 -- -- 80
2017-11-27 06:00:00 10.9 5 Norte 9 Norte 0 -- -- 73
2017-11-27 05:00:00 11.3 4 Norte 10 Norte 0 -- -- 73
2017-11-27 04:00:00 11.2 5 Norte 10 Norte 0 -- -- 76
2017-11-27 03:00:00 10.9 4 Norte 7 Norte 0 -- -- 85
2017-11-27 02:00:00 10.8 5 Norte 9 Norte 0 -- -- 85
2017-11-27 01:00:00 11.3 3 Noroeste 8 Noroeste 0 -- -- 86
2017-11-27 00:00:00 12.5 2 Oeste 7 Noroeste 0 -- -- 85
2017-11-26 23:00:00 12.4 0 Calma 4 Norte 0 -- -- 80
2017-11-26 22:00:00 13.3 3 Nordeste 5 Nordeste 0 -- -- 77
2017-11-26 21:00:00 13.7 3 Nordeste 11 Sur 0 -- -- 71
2017-11-26 20:00:00 15.9 4 Nordeste 8 Nordeste 0 -- -- 65
2017-11-26 19:00:00 16.7 5 Nordeste 9 Nordeste 0 -- -- 62
2017-11-26 18:00:00 18.6 6 Nordeste 9 Norte 0 -- -- 57
2017-11-26 17:00:00 20.9 5 Nordeste 16 Nordeste 0 -- -- 51
2017-11-26 16:00:00 22.2 9 Nordeste 21 Nordeste 0 -- -- 47
2017-11-26 15:00:00 21.9 10 Nordeste 21 Norte 0 -- -- 50
2017-11-26 14:00:00 21 14 Nordeste 28 Nordeste 0 -- -- 51
2017-11-26 13:00:00 19.9 16 Nordeste 30 Nordeste 0 -- -- 53
2017-11-26 12:00:00 20.8 21 Nordeste 31 Nordeste 0 -- -- 53
2017-11-26 11:00:00 18.3 16 Nordeste 29 Nordeste 0 -- -- 58
2017-11-26 10:00:00 14.7 10 Nordeste 19 Nordeste 0 -- -- 77
2017-11-26 09:00:00 12.8 9 Nordeste 13 Nordeste 0 -- -- 77
2017-11-26 08:00:00 11.7 8 Nordeste 12 Norte 0 -- -- 84
2017-11-26 07:00:00 12.7 8 Norte 13 Norte 0 -- -- 81
2017-11-26 06:00:00 12.3 7 Nordeste 14 Nordeste 0 -- -- 89
2017-11-26 05:00:00 12.7 4 Nordeste 10 Nordeste 0 -- -- 90
2017-11-26 04:00:00 13 6 Nordeste 10 Nordeste 0 -- -- 90
2017-11-26 03:00:00 12.6 6 Nordeste 10 Nordeste 0 -- -- 89
2017-11-26 02:00:00 12.5 6 Nordeste 11 Norte 0 -- -- 90
2017-11-26 01:00:00 12.8 4 Norte 10 Norte 0 -- -- 95
2017-11-26 00:00:00 13.2 5 Norte 13 Norte 0 -- -- 96
2017-11-25 23:00:00 13.5 3 Norte 4 Norte 0 -- -- 91
2017-11-25 22:00:00 14.5 3 Sur 4 Sur 0 -- -- 91
2017-11-25 21:00:00 15 0 Calma 4 Sudeste 0 -- -- 90
2017-11-25 20:00:00 16.1 3 Sudoeste 4 Sudoeste 0 -- -- 90
2017-11-25 19:00:00 17.9 3 Sudoeste 9 Sudoeste 0 -- -- 81
2017-11-25 18:00:00 20.7 6 Sudoeste 12 Oeste 0 -- -- 76
2017-11-25 17:00:00 22.1 10 Oeste 16 Sudoeste 0 -- -- 71
2017-11-25 16:00:00 22 10 Sudoeste 17 Sudoeste 0 -- -- 70
2017-11-25 15:00:00 20.9 4 Nordeste 9 Norte 0 -- -- 53
2017-11-25 14:00:00 20.8 8 Norte 13 Noroeste 0 -- -- 53
2017-11-25 13:00:00 19.3 5 Sur 11 Sur 0 -- -- 61
2017-11-25 12:00:00 15.2 3 Este 11 Nordeste 0 -- -- 58
2017-11-25 11:00:00 12.5 7 Nordeste 12 Nordeste 0 -- -- 64
2017-11-25 10:00:00 9.7 5 Nordeste 13 Norte 0 -- -- 79
2017-11-25 09:00:00 7.4 8 Norte 13 Nordeste 0 -- -- 82
2017-11-25 08:00:00 5.2 8 Nordeste 14 Nordeste 0 -- -- 88
2017-11-25 07:00:00 6.1 8 Nordeste 11 Nordeste 0 -- -- 86
2017-11-25 06:00:00 6.8 3 Nordeste 10 Norte 0 -- -- 77
2017-11-25 05:00:00 7.7 6 Nordeste 12 Norte 0 -- -- 78
2017-11-25 04:00:00 8.1 8 Nordeste 13 Nordeste 0 -- -- 82
2017-11-25 03:00:00 7 10 Nordeste 13 Norte 0 -- -- 86
2017-11-25 02:00:00 5.4 4 Norte 9 Nordeste 0 -- -- 92
2017-11-25 01:00:00 4.7 5 Nordeste 7 Nordeste 0 -- -- 85
2017-11-25 00:00:00 6.5 2 Noroeste 8 Nordeste 0 -- -- 85
2017-11-24 23:00:00 7.5 3 Norte 5 Nordeste 0 -- -- 86
2017-11-24 22:00:00 8.1 0 Calma 4 Este 0 -- -- 85
2017-11-24 21:00:00 9.1 0 Calma 4 Norte 0 -- -- 78
2017-11-24 20:00:00 12.1 2 Norte 8 Norte 0 -- -- 72
2017-11-24 19:00:00 15.8 0 Calma 6 Sudoeste 0 -- -- 64
2017-11-24 18:00:00 19.8 5 Sudoeste 12 Sudoeste 0 -- -- 50
2017-11-24 17:00:00 24.2 9 Sudoeste 16 Sudoeste 0 -- -- 34
2017-11-24 16:00:00 26.3 10 Sudoeste 16 Sur 0 -- -- 29
2017-11-24 15:00:00 26.4 4 Sur 12 Sudoeste 0 -- -- 28
2017-11-24 14:00:00 25.3 5 Sudeste 14 Sur 0 -- -- 30
2017-11-24 13:00:00 22.7 5 Este 13 Este 0 -- -- 36
2017-11-24 12:00:00 19.7 6 Nordeste 15 Nordeste 0 -- -- 42
2017-11-24 11:00:00 16 9 Nordeste 16 Nordeste 0 -- -- 53
2017-11-24 10:00:00 10.8 10 Nordeste 15 Nordeste 0 -- -- 76
2017-11-24 09:00:00 7.1 6 Norte 10 Nordeste 0 -- -- 83
2017-11-24 08:00:00 5.7 5 Nordeste 9 Nordeste 0 -- -- 87
2017-11-24 07:00:00 6.4 5 Nordeste 11 Nordeste 0 -- -- 85
2017-11-24 06:00:00 7.9 9 Nordeste 13 Norte 0 -- -- 84
2017-11-24 05:00:00 8.3 6 Nordeste 13 Norte 0 -- -- 83
2017-11-24 04:00:00 9.1 9 Nordeste 14 Nordeste 0 -- -- 81
2017-11-24 03:00:00 9 8 Nordeste 10 Norte 0 -- -- 78
2017-11-24 02:00:00 9.7 6 Nordeste 10 Nordeste 0 -- -- 75
2017-11-24 01:00:00 9.5 4 Nordeste 6 Este 0 -- -- 77
2017-11-24 00:00:00 10.8 2 Nordeste 8 Sur 0 -- -- 69
2017-11-23 23:00:00 12.9 6 Sur 8 Sur 0 -- -- 67
2017-11-23 22:00:00 14.1 6 Sur 9 Sudeste 0 -- -- 66
2017-11-23 21:00:00 15 6 Sur 9 Sur 0 -- -- 66
2017-11-23 20:00:00 15.7 2 Sudeste 6 Sur 0 -- -- 70
2017-11-23 19:00:00 16.5 8 Sur 10 Sudeste 0 -- -- 65
2017-11-23 18:00:00 18.2 5 Sur 11 Sur 0 -- -- 62
2017-11-23 17:00:00 19.8 9 Sur 19 Sur 0 -- -- 58
2017-11-23 16:00:00 22.9 13 Sur 22 Sudoeste 0 -- -- 50
2017-11-23 15:00:00 23.5 12 Sudoeste 18 Sur 0 -- -- 54
2017-11-23 14:00:00 22.6 6 Sur 18 Este 0 -- -- 50
2017-11-23 13:00:00 20.7 6 Sudeste 20 Este 0 -- -- 54
2017-11-23 12:00:00 17.4 7 Este 18 Nordeste 0 -- -- 54
2017-11-23 11:00:00 14.1 12 Nordeste 18 Nordeste 0 -- -- 63
2017-11-23 10:00:00 9.8 10 Nordeste 14 Nordeste 0 -- -- 86
2017-11-23 09:00:00 6.4 5 Nordeste 13 Norte 0 -- -- 93
2017-11-23 08:00:00 6.2 8 Nordeste 11 Nordeste 0 -- -- 95
2017-11-23 07:00:00 6.4 5 Nordeste 7 Norte 0 -- -- 95
2017-11-23 06:00:00 6.7 5 Nordeste 8 Nordeste 0 -- -- 95
2017-11-23 05:00:00 7.6 6 Nordeste 9 Nordeste 0 -- -- 94
2017-11-23 04:00:00 7.6 7 Nordeste 11 Nordeste 0 -- -- 95
2017-11-23 03:00:00 8.6 6 Nordeste 11 Nordeste 0 -- -- 95
2017-11-23 02:00:00 7.7 5 Nordeste 8 Nordeste 0 -- -- 96
2017-11-23 01:00:00 8 5 Nordeste 7 Nordeste 0 -- -- 96
2017-11-23 00:00:00 8.4 2 Nordeste 7 Nordeste 0 -- -- 96
2017-11-22 23:00:00 8.3 3 Norte 6 Nordeste 0 -- -- 94
2017-11-22 22:00:00 10.1 0 Calma 5 Sudeste 0 -- -- 95
2017-11-22 21:00:00 10.9 3 Sudeste 5 Sudeste 0 -- -- 94
2017-11-22 20:00:00 12.1 2 Este 6 Sur 0 -- -- 89
2017-11-22 19:00:00 14.8 6 Sur 12 Sur 0 -- -- 84
2017-11-22 18:00:00 17.7 10 Sudoeste 21 Sur 0 -- -- 77
2017-11-22 17:00:00 20.3 14 Sudoeste 20 Sudoeste 0 -- -- 64
2017-11-22 16:00:00 22.7 11 Sur 19 Sur 0 -- -- 42
2017-11-22 15:00:00 23.1 6 Sudeste 17 Sudeste 0 -- -- 34
2017-11-22 14:00:00 19.6 4 Nordeste 13 Noroeste 0 -- -- 39
2017-11-22 13:00:00 17.5 6 Norte 21 Nordeste 0 -- -- 47
2017-11-22 12:00:00 16.2 8 Nordeste 20 Este 0 -- -- 50
2017-11-22 11:00:00 13.4 10 Este 19 Nordeste 0 -- -- 58
2017-11-22 10:00:00 8.2 6 Este 14 Este 0 -- -- 79
2017-11-22 09:00:00 4.6 9 Nordeste 14 Norte 0 -- -- 84
2017-11-22 08:00:00 3.2 6 Nordeste 16 Norte 0 -- -- 85
2017-11-22 07:00:00 4.1 4 Norte 13 Nordeste 0 -- -- 84
2017-11-22 06:00:00 3.5 3 Noroeste 10 Nordeste 0 -- -- 89
2017-11-22 05:00:00 4 10 Nordeste 19 Nordeste 0 -- -- 88
2017-11-22 04:00:00 4.9 7 Nordeste 9 Nordeste 0 -- -- 93
2017-11-22 03:00:00 1.7 3 Nordeste 9 Nordeste 0 -- -- 91
2017-11-22 02:00:00 2 4 Norte 9 Nordeste 0 -- -- 89
2017-11-22 01:00:00 3 2 Nordeste 6 Nordeste 0 -- -- 88
2017-11-22 00:00:00 4.2 0 Calma 8 Noroeste 0 -- -- 85
2017-11-21 23:00:00 4.9 5 Noroeste 8 Noroeste 0 -- -- 87
2017-11-21 22:00:00 5.4 0 Calma 6 Noroeste 0 -- -- 81
2017-11-21 21:00:00 6.9 3 Noroeste 4 Noroeste 0 -- -- 81
2017-11-21 20:00:00 10 0 Calma 6 Oeste 0 -- -- 71
2017-11-21 19:00:00 14.2 3 Noroeste 7 Oeste 0 -- -- 62
2017-11-21 18:00:00 18.4 5 Oeste 15 Sudoeste 0 -- -- 55
2017-11-21 17:00:00 21.4 12 Sudoeste 20 Oeste 0 -- -- 45
2017-11-21 16:00:00 24.6 5 Sur 11 Sur 0 -- -- 32
2017-11-21 15:00:00 22.7 5 Este 17 Nordeste 0 -- -- 33
2017-11-21 14:00:00 21.1 8 Nordeste 16 Nordeste 0 -- -- 35
2017-11-21 13:00:00 19.5 9 Nordeste 19 Nordeste 0 -- -- 39
2017-11-21 12:00:00 17.2 10 Nordeste 20 Nordeste 0 -- -- 46
2017-11-21 11:00:00 14.1 11 Nordeste 19 Nordeste 0 -- -- 53
2017-11-21 10:00:00 9.3 12 Nordeste 16 Nordeste 0 -- -- 74
2017-11-21 09:00:00 5.6 7 Norte 13 Nordeste 0 -- -- 82
2017-11-21 08:00:00 2.6 5 Nordeste 7 Nordeste 0 -- -- 85
2017-11-21 07:00:00 4.3 3 Nordeste 10 Norte 0 -- -- 72
2017-11-21 06:00:00 5.8 0 Calma 12 Nordeste 0 -- -- 75
2017-11-21 05:00:00 6.8 6 Norte 13 Nordeste 0 -- -- 77
2017-11-21 04:00:00 4.2 5 Nordeste 10 Nordeste 0 -- -- 92
2017-11-21 03:00:00 2.8 2 Nordeste 6 Nordeste 0 -- -- 85
2017-11-21 02:00:00 3.9 3 Este 5 Este 0 -- -- 87
2017-11-21 01:00:00 4.4 2 Nordeste 7 Norte 0 -- -- 79
2017-11-21 00:00:00 5.9 3 Norte 6 Norte 0 -- -- 80
2017-11-20 23:00:00 6.6 4 Nordeste 8 Nordeste 0 -- -- 84
2017-11-20 22:00:00 8.3 3 Oeste 8 Oeste 0 -- -- 76
2017-11-20 21:00:00 9.4 6 Sudoeste 7 Sudoeste 0 -- -- 67
2017-11-20 20:00:00 11 4 Sudoeste 9 Sudoeste 0 -- -- 63
2017-11-20 19:00:00 15.1 0 Calma 4 Sudeste 0 -- -- 51
2017-11-20 18:00:00 20.8 0 Calma 11 Sudeste 0 -- -- 39
2017-11-20 17:00:00 23.2 4 Este 13 Nordeste 0 -- -- 33
2017-11-20 16:00:00 23.1 6 Este 20 Nordeste 0 -- -- 30
2017-11-20 15:00:00 22.5 8 Nordeste 18 Nordeste 0 -- -- 32
2017-11-20 14:00:00 21.4 9 Nordeste 18 Nordeste 0 -- -- 37
2017-11-20 13:00:00 19.7 9 Nordeste 19 Nordeste 0 -- -- 45
2017-11-20 12:00:00 17.8 10 Nordeste 22 Nordeste 0 -- -- 51
2017-11-20 11:00:00 14.8 9 Nordeste 19 Nordeste 0 -- -- 60
2017-11-20 10:00:00 10 9 Nordeste 15 Nordeste 0 -- -- 80
2017-11-20 09:00:00 6.2 6 Nordeste 9 Nordeste 0 -- -- 89
2017-11-20 08:00:00 6.2 5 Nordeste 12 Norte 0 -- -- 88
2017-11-20 07:00:00 5.7 7 Norte 10 Nordeste 0 -- -- 88
2017-11-20 06:00:00 7.6 6 Norte 13 Norte 0 -- -- 83
2017-11-20 05:00:00 6.8 7 Norte 19 Nordeste 0 -- -- 82
2017-11-20 04:00:00 6.7 9 Norte 14 Nordeste 0 -- -- 89
2017-11-20 03:00:00 5.3 3 Nordeste 9 Nordeste 0 -- -- 93
2017-11-20 02:00:00 6 5 Norte 9 Nordeste 0 -- -- 93
2017-11-20 01:00:00 4.4 0 Calma 5 Nordeste 0 -- -- 88
2017-11-20 00:00:00 6.8 0 Calma 5 Sur 0 -- -- 88
2017-11-19 23:00:00 6.8 2 Sur 8 Noroeste 0 -- -- 80
2017-11-19 22:00:00 8.6 4 Noroeste 12 Noroeste 0 -- -- 79
2017-11-19 21:00:00 11.5 7 Noroeste 13 Noroeste 0 -- -- 70
2017-11-19 20:00:00 13.1 6 Noroeste 9 Noroeste 0 -- -- 65
2017-11-19 19:00:00 15.1 5 Oeste 7 Sudoeste 0 -- -- 68
2017-11-19 18:00:00 19.9 5 Sudoeste 10 Nordeste 0 -- -- 48
2017-11-19 17:00:00 21.7 8 Nordeste 15 Este 0 -- -- 38
2017-11-19 16:00:00 21.6 8 Nordeste 16 Nordeste 0 -- -- 34
2017-11-19 15:00:00 20.9 8 Nordeste 18 Nordeste 0 -- -- 40
2017-11-19 14:00:00 20.1 8 Nordeste 18 Nordeste 0 -- -- 44
2017-11-19 13:00:00 18.6 8 Nordeste 15 Nordeste 0 -- -- 52
2017-11-19 12:00:00 16.6 8 Nordeste 15 Nordeste 0 -- -- 58
2017-11-19 11:00:00 13.6 8 Nordeste 17 Nordeste 0 -- -- 68
2017-11-19 10:00:00 9 11 Nordeste 15 Nordeste 0 -- -- 86
2017-11-19 09:00:00 4.7 8 Nordeste 12 Nordeste 0 -- -- 90
2017-11-19 08:00:00 4.2 8 Nordeste 13 Nordeste 0 -- -- 88
2017-11-19 07:00:00 6.4 5 Norte 10 Nordeste 0 -- -- 84
2017-11-19 06:00:00 6.9 7 Norte 11 Nordeste 0 -- -- 86
2017-11-19 05:00:00 6.3 6 Norte 10 Nordeste 0 -- -- 96
2017-11-19 04:00:00 3.2 4 Norte 10 Norte 0 -- -- 95
2017-11-19 03:00:00 3.1 4 Norte 8 Nordeste 0 -- -- 93
2017-11-19 02:00:00 4 0 Calma 2 Sudoeste 0 -- -- 91
2017-11-19 01:00:00 5.2 0 Calma 3 Este 0 -- -- 90
2017-11-19 00:00:00 6.3 0 Calma 5 Este 0 -- -- 91
2017-11-18 23:00:00 7 3 Este 9 Norte 0 -- -- 87
2017-11-18 22:00:00 10.5 6 Norte 12 Norte 0 -- -- 86
2017-11-18 21:00:00 10.2 6 Noroeste 10 Noroeste 0 -- -- 83
2017-11-18 20:00:00 12.3 4 Noroeste 11 Noroeste 0 -- -- 74
2017-11-18 19:00:00 14.9 6 Noroeste 8 Noroeste 0 -- -- 69
2017-11-18 18:00:00 18.1 3 Oeste 13 Sudoeste 0 -- -- 58
2017-11-18 17:00:00 20.9 10 Sudoeste 14 Sudoeste 0 -- -- 49
2017-11-18 16:00:00 20.5 4 Norte 14 Nordeste 0 -- -- 43
2017-11-18 15:00:00 20.4 5 Nordeste 14 Este 0 -- -- 45
2017-11-18 14:00:00 19.2 5 Norte 14 Este 0 -- -- 48
2017-11-18 13:00:00 17.7 6 Nordeste 14 Nordeste 0 -- -- 51
2017-11-18 12:00:00 16.1 5 Nordeste 13 Nordeste 0 -- -- 58
2017-11-18 11:00:00 12.9 9 Nordeste 16 Nordeste 0 -- -- 69
2017-11-18 10:00:00 8.1 9 Nordeste 13 Nordeste 0 -- -- 91
2017-11-18 09:00:00 4.6 6 Nordeste 12 Nordeste 0 -- -- 93
2017-11-18 08:00:00 4.8 8 Nordeste 14 Nordeste 0 -- -- 92
2017-11-18 07:00:00 5 8 Nordeste 13 Norte 0 -- -- 92
2017-11-18 06:00:00 5.5 8 Norte 14 Norte 0 -- -- 97
2017-11-18 05:00:00 4 4 Norte 6 Nordeste 0 -- -- 96
2017-11-18 04:00:00 2.6 2 Nordeste 4 Nordeste 0 -- -- 94
2017-11-18 03:00:00 3.7 2 Nordeste 3 Nordeste 0 -- -- 93
2017-11-18 02:00:00 3.7 0 Calma 3 Noroeste 0 -- -- 90
2017-11-18 01:00:00 4.7 0 Calma 3 Nordeste 0 -- -- 90
2017-11-18 00:00:00 6.4 0 Calma 5 Sur 0 -- -- 93
2017-11-17 23:00:00 5.9 4 Sur 7 Sur 0 -- -- 90
2017-11-17 22:00:00 7 3 Noroeste 8 Noroeste 0 -- -- 83
2017-11-17 21:00:00 11 5 Noroeste 8 Noroeste 0 -- -- 77
2017-11-17 20:00:00 11.4 5 Oeste 7 Oeste 0 -- -- 79
2017-11-17 19:00:00 14.8 4 Oeste 8 Sudoeste 0 -- -- 69
2017-11-17 18:00:00 18.8 0 Calma 12 Nordeste 0 -- -- 44
2017-11-17 17:00:00 20.6 9 Nordeste 15 Nordeste 0 -- -- 37
2017-11-17 16:00:00 21.3 9 Nordeste 19 Nordeste 0 -- -- 37
2017-11-17 15:00:00 20.9 8 Nordeste 17 Nordeste 0 -- -- 42
2017-11-17 14:00:00 20 6 Norte 14 Nordeste 0 -- -- 44
2017-11-17 13:00:00 18.2 5 Norte 14 Nordeste 0 -- -- 51
2017-11-17 12:00:00 16.2 7 Norte 13 Norte 0 -- -- 58
2017-11-17 11:00:00 13.4 9 Nordeste 14 Nordeste 0 -- -- 67
2017-11-17 10:00:00 8.9 6 Nordeste 12 Norte 0 -- -- 88
2017-11-17 09:00:00 6.6 5 Norte 10 Nordeste 0 -- -- 89
2017-11-17 08:00:00 5.6 6 Norte 13 Nordeste 0 -- -- 91
2017-11-17 07:00:00 5.5 9 Nordeste 13 Norte 0 -- -- 93
2017-11-17 06:00:00 5.4 7 Norte 12 Nordeste 0 -- -- 96
2017-11-17 05:00:00 3.5 6 Norte 12 Norte 0 -- -- 95
2017-11-17 04:00:00 4 0 Calma 5 Nordeste 0 -- -- 93
2017-11-17 03:00:00 5 3 Nordeste 5 Nordeste 0 -- -- 93
2017-11-17 02:00:00 5.7 0 Calma 6 Este 0 -- -- 92
2017-11-17 01:00:00 6.4 4 Este 7 Sudeste 0 -- -- 87
2017-11-17 00:00:00 9 0 Calma 16 Norte 0 -- -- 80
2017-11-16 23:00:00 10.5 8 Noroeste 12 Noroeste 0 -- -- 87
2017-11-16 22:00:00 11 5 Norte 13 Noroeste 0 -- -- 86
2017-11-16 21:00:00 9.8 5 Noroeste 8 Noroeste 0 -- -- 87
2017-11-16 20:00:00 12.9 5 Noroeste 9 Noroeste 0 -- -- 78
2017-11-16 19:00:00 15.3 5 Noroeste 8 Sudoeste 0 -- -- 72
2017-11-16 18:00:00 18.8 4 Oeste 10 Nordeste 0 -- -- 58
2017-11-16 17:00:00 20.6 7 Nordeste 14 Nordeste 0 -- -- 41
2017-11-16 16:00:00 21.1 6 Nordeste 16 Nordeste 0 -- -- 39
2017-11-16 15:00:00 20.7 8 Nordeste 16 Nordeste 0 -- -- 44
2017-11-16 14:00:00 19.8 7 Nordeste 18 Nordeste 0 -- -- 47
2017-11-16 13:00:00 18.3 8 Nordeste 19 Nordeste 0 -- -- 56
2017-11-16 12:00:00 16.5 8 Nordeste 17 Nordeste 0 -- -- 61
2017-11-16 11:00:00 13.4 10 Nordeste 17 Nordeste 0 -- -- 74
2017-11-16 10:00:00 9.3 10 Nordeste 15 Nordeste 0 -- -- 86
2017-11-16 09:00:00 6.6 8 Nordeste 15 Nordeste 0 -- -- 93
2017-11-16 08:00:00 4.9 14 Nordeste 17 Norte 0 -- -- 91
2017-11-16 07:00:00 6.1 3 Norte 9 Norte 0 -- -- 94
2017-11-16 06:00:00 6 5 Norte 10 Nordeste 0 -- -- 95
2017-11-16 05:00:00 2.7 2 Nordeste 5 Nordeste 0 -- -- 92
2017-11-16 04:00:00 3.3 0 Calma 4 Nordeste 0 -- -- 90
2017-11-16 03:00:00 4.2 3 Nordeste 6 Nordeste 0 -- -- 90
2017-11-16 02:00:00 4.9 0 Calma 8 Noroeste 0 -- -- 88
2017-11-16 01:00:00 5.7 3 Noroeste 5 Noroeste 0 -- -- 87
2017-11-16 00:00:00 6.2 0 Calma 5 Norte 0 -- -- 80
2017-11-15 23:00:00 8.8 3 Norte 10 Norte 0 -- -- 78
2017-11-15 22:00:00 8.8 2 Nordeste 14 Sudeste 0 -- -- 78
2017-11-15 21:00:00 9.2 2 Norte 5 Norte 0 -- -- 76
2017-11-15 20:00:00 12.3 3 Nordeste 5 Nordeste 0 -- -- 67
2017-11-15 19:00:00 14.7 2 Este 4 Este 0 -- -- 59
2017-11-15 18:00:00 18.5 3 Nordeste 15 Nordeste 0 -- -- 50
2017-11-15 17:00:00 20.3 8 Nordeste 20 Nordeste 0 -- -- 46
2017-11-15 16:00:00 20.9 7 Nordeste 18 Nordeste 0 -- -- 45
2017-11-15 15:00:00 20.4 9 Nordeste 23 Norte 0 -- -- 47
2017-11-15 14:00:00 20 14 Nordeste 29 Nordeste 0 -- -- 48
2017-11-15 13:00:00 18.8 18 Nordeste 28 Nordeste 0 -- -- 53
2017-11-15 12:00:00 17 11 Nordeste 21 Nordeste 0 -- -- 57
2017-11-15 11:00:00 13.8 12 Nordeste 22 Nordeste 0 -- -- 63
2017-11-15 10:00:00 10 12 Nordeste 17 Nordeste 0 -- -- 70
2017-11-15 09:00:00 5.4 6 Nordeste 12 Nordeste 0 -- -- 81
2017-11-15 08:00:00 3.7 8 Nordeste 15 Nordeste 0 -- -- 82
2017-11-15 07:00:00 4.7 7 Norte 13 Nordeste 0 -- -- 75
2017-11-15 06:00:00 6.5 5 Norte 11 Norte 0 -- -- 65
2017-11-15 05:00:00 7.4 6 Norte 12 Nordeste 0 -- -- 61
2017-11-15 04:00:00 7.1 6 Norte 11 Norte 0 -- -- 63
2017-11-15 03:00:00 7.9 3 Norte 8 Norte 0 -- -- 60
2017-11-15 02:00:00 8.2 4 Norte 9 Norte 0 -- -- 59
2017-11-15 01:00:00 7.4 5 Norte 9 Norte 0 -- -- 61
2017-11-15 00:00:00 6.2 0 Calma 6 Nordeste 0 -- -- 59